createdAt,value
2022-11-06T00:01:25.698Z,21.45
2022-11-06T00:03:53.680Z,23.55
2022-11-06T00:06:39.083Z,23.52
2022-11-06T00:09:08.366Z,24.98
2022-11-06T00:11:35.223Z,23.95
2022-11-06T00:14:03.015Z,23.02
2022-11-06T00:16:29.833Z,22.05
2022-11-06T00:18:56.965Z,25.48
2022-11-06T00:21:27.303Z,24.02
2022-11-06T00:23:55.988Z,22.55
2022-11-06T00:26:28.013Z,29.35
2022-11-06T00:28:55.167Z,23.60
2022-11-06T00:31:24.524Z,25.80
2022-11-06T00:33:53.243Z,25.70
2022-11-06T00:36:21.989Z,24.55
2022-11-06T00:38:55.175Z,22.77
2022-11-06T00:41:23.131Z,23.15
2022-11-06T00:43:52.671Z,22.88
2022-11-06T00:46:19.577Z,27.00
2022-11-06T00:48:47.079Z,23.92
2022-11-06T00:51:14.992Z,28.75
2022-11-06T00:53:42.989Z,39.90
2022-11-06T00:56:12.345Z,32.97
2022-11-06T00:58:40.318Z,29.25
2022-11-06T01:01:07.223Z,25.50
2022-11-06T01:03:34.710Z,26.17
2022-11-06T01:06:06.307Z,24.77
2022-11-06T01:08:33.858Z,22.92
2022-11-06T01:11:10.297Z,25.50
2022-11-06T01:13:37.915Z,25.35
2022-11-06T01:16:07.121Z,24.20
2022-11-06T01:18:35.406Z,18.65
2022-11-06T01:21:11.895Z,22.33
2022-11-06T01:23:39.334Z,24.67
2022-11-06T01:26:08.066Z,21.45
2022-11-06T01:28:35.304Z,23.27
2022-11-06T01:31:15.643Z,27.05
2022-11-06T01:33:43.192Z,28.15
2022-11-06T01:36:11.475Z,30.70
2022-11-06T01:38:42.607Z,35.03
2022-11-06T01:41:14.595Z,30.90
2022-11-06T01:43:51.835Z,32.80
2022-11-06T01:46:19.339Z,32.20
2022-11-06T01:49:00.599Z,31.75
2022-11-06T01:51:28.783Z,34.42
2022-11-06T01:53:56.197Z,32.25
2022-11-06T01:56:23.336Z,31.70
2022-11-06T01:58:52.592Z,32.67
2022-11-06T02:01:19.874Z,30.77
2022-11-06T02:04:09.442Z,39.00
2022-11-06T02:06:37.007Z,44.38
2022-11-06T02:09:11.262Z,58.30
2022-11-06T02:11:42.830Z,59.30
2022-11-06T02:14:31.158Z,64.90
2022-11-06T02:17:06.568Z,70.95
2022-11-06T02:19:52.115Z,71.07
2022-11-06T02:22:37.537Z,82.97
2022-11-06T02:25:17.091Z,87.38
2022-11-06T02:28:04.711Z,83.78
2022-11-06T02:30:35.707Z,93.43
2022-11-06T02:33:07.099Z,91.88
2022-11-06T02:35:49.918Z,98.38
2022-11-06T02:38:30.731Z,112.20
2022-11-06T02:41:00.970Z,105.95
2022-11-06T02:43:36.075Z,106.90
2022-11-06T02:46:08.339Z,110.28
2022-11-06T02:48:40.672Z,102.45
2022-11-06T02:51:10.924Z,108.65
2022-11-06T02:53:40.103Z,105.90
2022-11-06T02:56:11.917Z,94.65
2022-11-06T02:58:53.266Z,112.38
2022-11-06T03:01:25.187Z,103.07
2022-11-06T03:03:54.720Z,104.93
2022-11-06T03:06:33.973Z,100.72
2022-11-06T03:09:07.667Z,114.25
2022-11-06T03:11:38.991Z,104.00
2022-11-06T03:14:05.811Z,105.45
2022-11-06T03:16:51.375Z,113.50
2022-11-06T03:19:30.193Z,106.65
2022-11-06T03:22:10.700Z,122.70
2022-11-06T03:24:44.275Z,119.95
2022-11-06T03:27:18.935Z,111.35
2022-11-06T03:29:49.919Z,122.13
2022-11-06T03:32:37.533Z,125.18
2022-11-06T03:35:09.705Z,128.88
2022-11-06T03:37:44.032Z,116.78
2022-11-06T03:40:16.095Z,133.38
2022-11-06T03:42:43.763Z,129.60
2022-11-06T03:45:15.190Z,138.25
2022-11-06T03:48:04.921Z,144.35
2022-11-06T03:50:35.310Z,142.60
2022-11-06T03:53:08.134Z,129.05
2022-11-06T03:55:55.951Z,140.10
2022-11-06T03:58:26.260Z,127.68
2022-11-06T04:00:54.969Z,131.50
2022-11-06T04:03:56.255Z,117.63
2022-11-06T04:06:26.232Z,121.38
2022-11-06T04:09:13.721Z,116.85
2022-11-06T04:12:00.172Z,114.25
2022-11-06T04:14:27.912Z,119.20
2022-11-06T04:16:57.968Z,122.22
2022-11-06T04:19:25.122Z,111.78
2022-11-06T04:22:02.411Z,116.97
2022-11-06T04:25:12.565Z,117.38
2022-11-06T04:27:59.456Z,114.15
2022-11-06T04:30:27.499Z,112.45
2022-11-06T04:33:02.613Z,125.18
2022-11-06T04:35:42.058Z,125.38
2022-11-06T04:38:16.459Z,119.57
2022-11-06T04:41:20.244Z,122.65
2022-11-06T04:43:52.862Z,112.47
2022-11-06T04:46:23.831Z,126.78
2022-11-06T04:48:51.304Z,140.15
2022-11-06T04:51:22.257Z,122.60
2022-11-06T04:53:49.789Z,139.57
2022-11-06T04:56:31.902Z,122.47
2022-11-06T04:59:00.926Z,130.60
2022-11-06T05:01:28.396Z,153.52
2022-11-06T05:03:55.346Z,130.10
2022-11-06T05:06:27.005Z,144.57
2022-11-06T05:08:58.277Z,139.43
2022-11-06T05:11:25.437Z,135.43
2022-11-06T05:13:52.278Z,141.05
2022-11-06T05:16:19.373Z,140.88
2022-11-06T05:18:46.277Z,149.95
2022-11-06T05:21:32.007Z,126.35
2022-11-06T05:23:58.844Z,141.80
2022-11-06T05:26:25.942Z,126.93
2022-11-06T05:28:52.775Z,134.98
2022-11-06T05:31:19.892Z,135.57
2022-11-06T05:33:46.728Z,125.68
2022-11-06T05:36:13.865Z,126.10
2022-11-06T05:38:40.658Z,124.20
2022-11-06T05:41:07.839Z,116.47
2022-11-06T05:43:34.680Z,122.50
2022-11-06T05:46:02.022Z,105.93
2022-11-06T05:48:29.186Z,108.57
2022-11-06T05:51:06.204Z,104.78
2022-11-06T05:53:34.567Z,105.00
2022-11-06T05:56:01.906Z,96.40
2022-11-06T05:58:29.112Z,96.82
2022-11-06T06:00:56.741Z,97.55
2022-11-06T06:03:24.173Z,108.78
2022-11-06T06:05:51.709Z,103.85
2022-11-06T06:08:18.655Z,107.28
2022-11-06T06:10:46.919Z,105.68
2022-11-06T06:13:15.002Z,108.28
2022-11-06T06:15:42.885Z,102.18
2022-11-06T06:18:09.998Z,112.03
2022-11-06T06:20:37.169Z,102.55
2022-11-06T06:23:06.392Z,116.30
2022-11-06T06:25:36.143Z,107.25
2022-11-06T06:28:03.458Z,117.90
2022-11-06T06:30:30.327Z,109.88
2022-11-06T06:33:05.308Z,94.03
2022-11-06T06:35:32.678Z,86.03
2022-11-06T06:37:59.897Z,90.20
2022-11-06T06:40:27.120Z,90.47
2022-11-06T06:42:58.093Z,84.93
2022-11-06T06:45:25.792Z,89.07
2022-11-06T06:47:52.921Z,84.82
2022-11-06T06:50:19.767Z,82.75
2022-11-06T06:52:47.455Z,91.38
2022-11-06T06:55:14.496Z,82.97
2022-11-06T06:57:41.875Z,73.32
2022-11-06T07:00:09.474Z,71.38
2022-11-06T07:02:36.568Z,71.72
2022-11-06T07:05:03.454Z,72.00
2022-11-06T07:07:30.620Z,68.57
2022-11-06T07:09:57.399Z,66.47
2022-11-06T07:12:24.519Z,60.03
2022-11-06T07:14:51.521Z,64.50
2022-11-06T07:17:18.777Z,61.20
2022-11-06T07:19:45.579Z,63.05
2022-11-06T07:22:12.812Z,58.40
2022-11-06T07:24:39.779Z,62.55
2022-11-06T07:27:06.938Z,61.67
2022-11-06T07:29:33.718Z,73.32
2022-11-06T07:32:00.841Z,65.55
2022-11-06T07:34:27.646Z,69.32
2022-11-06T07:36:54.910Z,67.47
2022-11-06T07:39:21.679Z,67.88
2022-11-06T07:41:48.740Z,60.58
2022-11-06T07:44:15.573Z,63.42
2022-11-06T07:46:42.744Z,62.95
2022-11-06T07:49:09.829Z,58.35
2022-11-06T07:51:36.961Z,63.75
2022-11-06T07:54:03.865Z,63.55
2022-11-06T07:56:31.482Z,59.10
2022-11-06T07:58:58.378Z,58.80
2022-11-06T08:01:25.556Z,60.60
2022-11-06T08:03:52.460Z,56.42
2022-11-06T08:06:19.604Z,55.00
2022-11-06T08:08:46.618Z,55.60
2022-11-06T08:11:14.289Z,50.55
2022-11-06T08:13:41.373Z,42.20
2022-11-06T08:16:10.740Z,45.63
2022-11-06T08:18:37.643Z,49.13
2022-11-06T08:21:05.942Z,46.80
2022-11-06T08:23:33.429Z,48.03
2022-11-06T08:26:03.703Z,48.67
2022-11-06T08:28:30.604Z,47.42
2022-11-06T08:30:58.033Z,48.17
2022-11-06T08:33:24.984Z,48.08
2022-11-06T08:35:52.143Z,42.17
2022-11-06T08:38:19.221Z,53.13
2022-11-06T08:40:52.275Z,46.25
2022-11-06T08:43:20.452Z,40.35
2022-11-06T08:45:47.645Z,46.40
2022-11-06T08:48:14.424Z,45.20
2022-11-06T08:50:41.982Z,43.53
2022-11-06T08:53:08.910Z,45.10
2022-11-06T08:55:37.929Z,42.83
2022-11-06T08:58:05.859Z,42.53
2022-11-06T09:00:33.660Z,42.33
2022-11-06T09:03:02.032Z,40.05
2022-11-06T09:05:29.722Z,40.88
2022-11-06T09:07:57.815Z,45.17
2022-11-06T09:10:26.172Z,42.95
2022-11-06T09:12:53.126Z,45.40
2022-11-06T09:15:20.464Z,38.13
2022-11-06T09:17:49.495Z,45.13
2022-11-06T09:20:18.935Z,37.83
2022-11-06T09:22:46.296Z,41.78
2022-11-06T09:25:14.692Z,43.28
2022-11-06T09:27:52.074Z,41.15
2022-11-06T09:30:23.944Z,42.83
2022-11-06T09:32:52.975Z,41.17
2022-11-06T09:35:21.425Z,42.40
2022-11-06T09:37:48.406Z,40.35
2022-11-06T09:40:30.694Z,48.72
2022-11-06T09:42:57.516Z,45.20
2022-11-06T09:45:28.082Z,40.35
2022-11-06T09:48:02.621Z,42.10
2022-11-06T09:50:32.643Z,43.28
2022-11-06T09:53:06.335Z,42.00
2022-11-06T09:55:38.299Z,41.65
2022-11-06T09:58:12.374Z,41.42
2022-11-06T10:00:41.205Z,39.22
2022-11-06T10:03:16.759Z,41.45
2022-11-06T10:05:45.742Z,38.03
2022-11-06T10:08:21.149Z,33.58
2022-11-06T10:11:07.534Z,38.67
2022-11-06T10:13:46.521Z,31.38
2022-11-06T10:16:31.930Z,29.20
2022-11-06T10:19:28.712Z,37.22
2022-11-06T10:22:08.273Z,34.88
2022-11-06T10:25:02.108Z,34.42
2022-11-06T10:27:45.902Z,29.10
2022-11-06T10:30:14.544Z,31.10
2022-11-06T10:33:11.394Z,27.90
2022-11-06T10:36:07.794Z,29.52
2022-11-06T10:38:36.736Z,32.00
2022-11-06T10:41:03.660Z,33.17
2022-11-06T10:43:36.052Z,40.92
2022-11-06T10:46:24.221Z,32.67
2022-11-06T10:49:12.252Z,25.45
2022-11-06T10:52:33.245Z,29.80
2022-11-06T10:55:06.464Z,30.65
2022-11-06T10:57:58.290Z,29.42
2022-11-06T11:00:25.873Z,28.73
2022-11-06T11:02:55.798Z,27.35
2022-11-06T11:05:24.927Z,24.35
2022-11-06T11:07:52.153Z,28.77
2022-11-06T11:10:28.270Z,27.27
2022-11-06T11:12:58.053Z,24.83
2022-11-06T11:15:26.376Z,24.05
2022-11-06T11:18:12.188Z,23.98
2022-11-06T11:20:42.145Z,27.50
2022-11-06T11:23:14.894Z,20.42
2022-11-06T11:26:22.825Z,25.75
2022-11-06T11:28:57.765Z,32.30
2022-11-06T11:31:35.183Z,23.70
2022-11-06T11:34:04.683Z,20.67
2022-11-06T11:36:54.678Z,23.05
2022-11-06T11:39:31.085Z,23.02
2022-11-06T11:42:31.400Z,19.75
2022-11-06T11:45:10.604Z,20.67
2022-11-06T11:47:40.086Z,20.45
2022-11-06T11:50:21.969Z,24.00
2022-11-06T11:52:52.292Z,21.50
2022-11-06T11:55:23.620Z,20.15
2022-11-06T11:57:51.562Z,21.05
2022-11-06T12:00:20.346Z,21.75
2022-11-06T12:02:55.147Z,18.88
2022-11-06T12:05:32.263Z,19.70
2022-11-06T12:07:59.889Z,20.13
2022-11-06T12:10:33.934Z,17.98
2022-11-06T12:13:06.226Z,16.67
2022-11-06T12:15:54.378Z,16.20
2022-11-06T12:18:32.876Z,18.75
2022-11-06T12:21:06.912Z,14.00
2022-11-06T12:23:50.832Z,16.83
2022-11-06T12:26:33.311Z,17.80
2022-11-06T12:29:29.783Z,21.23
2022-11-06T12:32:07.476Z,20.02
2022-11-06T12:34:54.887Z,21.88
2022-11-06T12:37:59.559Z,17.15
2022-11-06T12:40:32.863Z,16.10
2022-11-06T12:43:17.988Z,16.15
2022-11-06T12:46:10.075Z,17.35
2022-11-06T12:48:44.505Z,21.42
2022-11-06T12:52:02.783Z,19.48
2022-11-06T12:54:44.609Z,29.10
2022-11-06T12:57:32.831Z,20.80
2022-11-06T13:00:31.489Z,32.45
2022-11-06T13:03:13.634Z,19.52
2022-11-06T13:05:57.517Z,19.88
2022-11-06T13:08:58.295Z,20.25
2022-11-06T13:11:37.279Z,19.80
2022-11-06T13:14:17.300Z,20.50
2022-11-06T13:17:02.223Z,22.55
2022-11-06T13:19:42.059Z,18.33
2022-11-06T13:22:36.131Z,23.52
2022-11-06T13:25:05.961Z,19.25
2022-11-06T13:27:39.039Z,21.58
2022-11-06T13:30:14.668Z,17.73
2022-11-06T13:32:48.514Z,22.27
2022-11-06T13:35:21.502Z,19.80
2022-11-06T13:37:49.262Z,18.75
2022-11-06T13:40:16.560Z,13.27
2022-11-06T13:42:50.004Z,15.77
2022-11-06T13:45:17.814Z,15.00
2022-11-06T13:47:57.519Z,18.08
2022-11-06T13:50:46.637Z,14.90
2022-11-06T13:53:19.217Z,13.73
2022-11-06T13:56:22.390Z,16.38
2022-11-06T13:59:07.876Z,18.08
2022-11-06T14:02:15.521Z,21.27
2022-11-06T14:05:13.442Z,15.82
2022-11-06T14:07:41.835Z,20.60
2022-11-06T14:10:23.220Z,14.93
2022-11-06T14:12:50.921Z,18.75
2022-11-06T14:15:20.842Z,15.48
2022-11-06T14:18:21.189Z,18.42
2022-11-06T14:20:48.785Z,15.02
2022-11-06T14:23:31.110Z,15.05
2022-11-06T14:26:03.074Z,14.35
2022-11-06T14:28:32.663Z,14.55
2022-11-06T14:31:18.281Z,20.60
2022-11-06T14:33:49.441Z,15.50
2022-11-06T14:36:25.333Z,18.70
2022-11-06T14:38:53.345Z,22.17
2022-11-06T14:41:35.534Z,17.27
2022-11-06T14:44:15.243Z,19.80
2022-11-06T14:46:50.392Z,21.20
2022-11-06T14:49:30.170Z,14.48
2022-11-06T14:52:03.431Z,19.05
2022-11-06T14:54:30.984Z,18.38
2022-11-06T14:56:58.428Z,16.00
2022-11-06T14:59:30.114Z,19.02
2022-11-06T15:02:24.308Z,17.02
2022-11-06T15:05:01.727Z,17.55
2022-11-06T15:08:03.250Z,17.10
2022-11-06T15:10:50.006Z,17.30
2022-11-06T15:13:18.032Z,15.43
2022-11-06T15:15:47.640Z,21.90
2022-11-06T15:18:19.578Z,17.65
2022-11-06T15:21:03.585Z,24.38
2022-11-06T15:23:42.319Z,25.77
2022-11-06T15:26:33.841Z,28.17
2022-11-06T15:29:15.823Z,26.90
2022-11-06T15:31:51.948Z,27.25
2022-11-06T15:34:31.389Z,37.00
2022-11-06T15:37:10.784Z,16.50
2022-11-06T15:39:57.566Z,14.43
2022-11-06T15:42:31.958Z,26.95
2022-11-06T15:45:15.710Z,29.85
2022-11-06T15:47:57.236Z,38.05
2022-11-06T15:50:28.862Z,44.17
2022-11-06T15:53:20.967Z,35.47
2022-11-06T15:55:55.816Z,37.63
2022-11-06T15:58:30.831Z,36.60
2022-11-06T16:01:00.774Z,35.50
2022-11-06T16:03:31.430Z,37.28
2022-11-06T16:06:02.319Z,34.28
2022-11-06T16:08:31.843Z,34.97
2022-11-06T16:11:00.371Z,39.88
2022-11-06T16:13:28.993Z,92.68
2022-11-06T16:16:01.577Z,172.13
2022-11-06T16:18:44.630Z,153.48
2022-11-06T16:21:19.126Z,154.70
2022-11-06T16:23:53.299Z,64.65
2022-11-06T16:26:44.491Z,26.73
2022-11-06T16:29:19.694Z,66.97
2022-11-06T16:31:48.520Z,43.80
2022-11-06T16:34:22.559Z,20.98
2022-11-06T16:37:12.096Z,34.10
2022-11-06T16:39:52.650Z,52.25
2022-11-06T16:42:26.561Z,64.63
2022-11-06T16:45:18.777Z,126.00
2022-11-06T16:48:08.496Z,274.77
2022-11-06T16:50:54.829Z,143.65
2022-11-06T16:53:31.093Z,115.90
2022-11-06T16:56:01.559Z,313.30
2022-11-06T16:58:34.654Z,430.95
2022-11-06T17:01:05.432Z,331.75
2022-11-06T17:03:39.659Z,286.92
2022-11-06T17:06:09.532Z,175.10
2022-11-06T17:08:38.515Z,407.95
2022-11-06T17:11:21.766Z,454.33
2022-11-06T17:13:50.365Z,350.58
2022-11-06T17:16:23.420Z,394.60
2022-11-06T17:18:50.695Z,859.03
2022-11-06T17:21:25.363Z,1000.15
2022-11-06T17:23:53.023Z,597.67
2022-11-06T17:26:22.420Z,683.70
2022-11-06T17:28:49.701Z,314.30
2022-11-06T17:31:18.581Z,310.27
2022-11-06T17:33:45.818Z,253.75
2022-11-06T17:36:18.397Z,219.85
2022-11-06T17:38:46.355Z,189.48
2022-11-06T17:41:13.426Z,166.70
2022-11-06T17:43:40.668Z,42.05
2022-11-06T17:46:10.885Z,54.00
2022-11-06T17:48:38.038Z,34.05
2022-11-06T17:51:23.920Z,35.40
2022-11-06T17:53:51.016Z,94.83
2022-11-06T17:56:17.830Z,51.83
2022-11-06T17:58:44.955Z,44.63
2022-11-06T18:01:11.955Z,40.43
2022-11-06T18:03:44.495Z,43.67
2022-11-06T18:06:13.116Z,39.17
2022-11-06T18:08:40.398Z,96.03
2022-11-06T18:11:08.051Z,146.48
2022-11-06T18:13:36.227Z,195.90
2022-11-06T18:16:03.506Z,186.83
2022-11-06T18:18:31.080Z,139.80
2022-11-06T18:20:58.971Z,155.77
2022-11-06T18:23:26.395Z,163.48
2022-11-06T18:25:55.393Z,233.85
2022-11-06T18:28:24.020Z,230.65
2022-11-06T18:30:51.725Z,119.53
2022-11-06T18:33:19.658Z,102.03
2022-11-06T18:35:46.885Z,54.85
2022-11-06T18:38:14.989Z,50.90
2022-11-06T18:40:46.135Z,184.45
2022-11-06T18:43:17.571Z,167.20
2022-11-06T18:45:44.550Z,236.25
2022-11-06T18:48:14.766Z,207.55
2022-11-06T18:50:43.945Z,58.55
2022-11-06T18:53:11.071Z,51.63
2022-11-06T18:55:44.578Z,40.72
2022-11-06T18:58:12.627Z,72.47
2022-11-06T19:00:39.755Z,51.63
2022-11-06T19:03:06.962Z,63.08
2022-11-06T19:05:34.473Z,35.25
2022-11-06T19:08:02.894Z,39.50
2022-11-06T19:10:31.311Z,45.72
2022-11-06T19:12:59.612Z,34.35
2022-11-06T19:15:26.849Z,29.85
2022-11-06T19:17:54.892Z,36.83
2022-11-06T19:20:22.250Z,389.83
2022-11-06T19:22:51.147Z,66.70
2022-11-06T19:25:18.856Z,52.10
2022-11-06T19:27:46.597Z,63.63
2022-11-06T19:30:14.827Z,80.22
2022-11-06T19:32:42.250Z,149.30
2022-11-06T19:35:09.599Z,99.00
2022-11-06T19:37:38.385Z,140.30
2022-11-06T19:40:06.618Z,213.30
2022-11-06T19:42:34.476Z,213.00
2022-11-06T19:45:01.593Z,115.47
2022-11-06T19:47:28.751Z,108.50
2022-11-06T19:49:55.621Z,200.68
2022-11-06T19:52:43.207Z,61.88
2022-11-06T19:55:24.745Z,26.90
2022-11-06T19:57:54.653Z,114.18
2022-11-06T20:00:21.752Z,282.92
2022-11-06T20:02:50.052Z,28.23
2022-11-06T20:05:17.405Z,64.78
2022-11-06T20:07:44.200Z,50.10
2022-11-06T20:10:11.540Z,88.82
2022-11-06T20:12:38.425Z,933.60
2022-11-06T20:15:06.247Z,373.67
2022-11-06T20:17:33.029Z,177.90
2022-11-06T20:20:00.143Z,243.13
2022-11-06T20:22:27.353Z,132.85
2022-11-06T20:24:54.436Z,55.30
2022-11-06T20:27:21.296Z,39.75
2022-11-06T20:29:48.439Z,40.70
2022-11-06T20:32:19.025Z,44.10
2022-11-06T20:34:46.788Z,135.90
2022-11-06T20:37:13.754Z,146.50
2022-11-06T20:39:43.791Z,33.22
2022-11-06T20:42:10.699Z,34.22
2022-11-06T20:44:38.060Z,102.28
2022-11-06T20:47:04.946Z,66.60
2022-11-06T20:49:32.630Z,39.03
2022-11-06T20:52:13.748Z,33.10
2022-11-06T20:54:46.842Z,27.70
2022-11-06T20:57:17.762Z,29.70
2022-11-06T20:59:46.120Z,68.47
2022-11-06T21:02:13.077Z,34.20
2022-11-06T21:04:41.181Z,101.18
2022-11-06T21:07:08.007Z,143.70
2022-11-06T21:09:35.202Z,123.55
2022-11-06T21:12:02.090Z,63.30
2022-11-06T21:14:30.248Z,37.40
2022-11-06T21:16:57.201Z,36.70
2022-11-06T21:19:24.629Z,33.97
2022-11-06T21:21:51.513Z,157.43
2022-11-06T21:24:18.640Z,58.60
2022-11-06T21:26:45.528Z,98.32
2022-11-06T21:29:12.959Z,161.43
2022-11-06T21:31:45.645Z,50.17
2022-11-06T21:34:15.843Z,54.70
2022-11-06T21:36:42.698Z,44.65
2022-11-06T21:39:15.037Z,23.17
2022-11-06T21:41:41.948Z,38.17
2022-11-06T21:44:16.676Z,118.50
2022-11-06T21:46:45.570Z,54.97
2022-11-06T21:49:13.825Z,67.60
2022-11-06T21:51:40.894Z,51.72
2022-11-06T21:54:28.930Z,70.63
2022-11-06T21:56:55.724Z,57.10
2022-11-06T21:59:25.857Z,34.47
2022-11-06T22:01:53.043Z,18.98
2022-11-06T22:04:20.422Z,19.52
2022-11-06T22:06:47.392Z,16.50
2022-11-06T22:09:14.609Z,16.70
2022-11-06T22:11:43.843Z,30.77
2022-11-06T22:14:13.426Z,181.57
2022-11-06T22:16:42.198Z,158.60
2022-11-06T22:19:10.547Z,59.47
2022-11-06T22:21:38.710Z,25.10
2022-11-06T22:24:06.880Z,21.33
2022-11-06T22:26:34.889Z,21.40
2022-11-06T22:29:05.466Z,21.40
2022-11-06T22:31:32.469Z,18.38
2022-11-06T22:33:59.861Z,20.58
2022-11-06T22:36:26.779Z,16.67
2022-11-06T22:38:54.390Z,22.95
2022-11-06T22:41:23.539Z,25.67
2022-11-06T22:43:51.509Z,24.05
2022-11-06T22:46:21.332Z,28.80
2022-11-06T22:48:49.912Z,27.58
2022-11-06T22:51:22.807Z,26.58
2022-11-06T22:53:53.249Z,25.23
2022-11-06T22:56:21.737Z,32.42
2022-11-06T22:59:03.188Z,32.00
2022-11-06T23:01:31.281Z,29.63
2022-11-06T23:04:02.174Z,28.20
2022-11-06T23:06:29.193Z,27.30
2022-11-06T23:08:56.284Z,25.20
2022-11-06T23:11:24.967Z,20.52
2022-11-06T23:13:52.865Z,22.70
2022-11-06T23:16:43.821Z,29.08
2022-11-06T23:19:13.303Z,37.20
2022-11-06T23:21:40.887Z,263.05
2022-11-06T23:24:08.671Z,216.32
2022-11-06T23:26:35.909Z,295.70
2022-11-06T23:29:03.400Z,133.07
2022-11-06T23:31:30.887Z,113.00
2022-11-06T23:33:57.771Z,104.55
2022-11-06T23:36:25.161Z,67.68
2022-11-06T23:38:54.808Z,61.03
2022-11-06T23:41:40.455Z,49.65
2022-11-06T23:44:27.277Z,48.17
2022-11-06T23:46:54.430Z,109.13
2022-11-06T23:49:21.324Z,75.85
2022-11-06T23:51:48.575Z,91.35
2022-11-06T23:54:15.763Z,86.38
2022-11-06T23:56:42.842Z,79.57
2022-11-06T23:59:09.687Z,102.15
